sensor_id;sensor_type;location;lat;lon;timestamp;P1;durP1;ratioP1;P2;durP2;ratioP2
64653;SDS011;51065;48.884;12.598;2023-04-25T00:02:22;4.45;;;2.00;;
64653;SDS011;51065;48.884;12.598;2023-04-25T00:04:48;4.47;;;2.00;;
64653;SDS011;51065;48.884;12.598;2023-04-25T00:07:13;6.47;;;2.17;;
64653;SDS011;51065;48.884;12.598;2023-04-25T00:09:39;4.85;;;2.35;;
64653;SDS011;51065;48.884;12.598;2023-04-25T00:12:05;6.95;;;2.20;;
64653;SDS011;51065;48.884;12.598;2023-04-25T00:14:31;3.95;;;2.17;;
64653;SDS011;51065;48.884;12.598;2023-04-25T00:16:59;3.28;;;1.85;;
64653;SDS011;51065;48.884;12.598;2023-04-25T00:19:24;5.38;;;2.08;;
64653;SDS011;51065;48.884;12.598;2023-04-25T00:21:51;8.98;;;2.53;;
64653;SDS011;51065;48.884;12.598;2023-04-25T00:24:18;5.07;;;2.10;;
64653;SDS011;51065;48.884;12.598;2023-04-25T00:26:44;5.70;;;2.30;;
64653;SDS011;51065;48.884;12.598;2023-04-25T00:29:10;4.25;;;2.20;;
64653;SDS011;51065;48.884;12.598;2023-04-25T00:31:35;6.10;;;2.45;;
64653;SDS011;51065;48.884;12.598;2023-04-25T00:34:01;4.05;;;1.88;;
64653;SDS011;51065;48.884;12.598;2023-04-25T00:36:27;5.30;;;2.42;;
64653;SDS011;51065;48.884;12.598;2023-04-25T00:38:52;4.65;;;2.28;;
64653;SDS011;51065;48.884;12.598;2023-04-25T00:41:19;3.83;;;1.98;;
64653;SDS011;51065;48.884;12.598;2023-04-25T00:43:45;6.80;;;2.40;;
64653;SDS011;51065;48.884;12.598;2023-04-25T00:46:12;5.60;;;2.22;;
64653;SDS011;51065;48.884;12.598;2023-04-25T00:48:38;4.75;;;2.38;;
64653;SDS011;51065;48.884;12.598;2023-04-25T00:51:03;5.82;;;2.17;;
64653;SDS011;51065;48.884;12.598;2023-04-25T00:53:29;3.70;;;1.85;;
64653;SDS011;51065;48.884;12.598;2023-04-25T00:55:57;3.45;;;1.85;;
64653;SDS011;51065;48.884;12.598;2023-04-25T00:58:23;5.55;;;1.90;;
64653;SDS011;51065;48.884;12.598;2023-04-25T01:00:50;4.00;;;2.08;;
64653;SDS011;51065;48.884;12.598;2023-04-25T01:03:19;8.25;;;2.50;;
64653;SDS011;51065;48.884;12.598;2023-04-25T01:05:45;6.28;;;2.35;;
64653;SDS011;51065;48.884;12.598;2023-04-25T01:08:12;4.40;;;2.15;;
64653;SDS011;51065;48.884;12.598;2023-04-25T01:10:37;4.97;;;2.42;;
64653;SDS011;51065;48.884;12.598;2023-04-25T01:13:03;3.17;;;1.92;;
64653;SDS011;51065;48.884;12.598;2023-04-25T01:15:29;4.10;;;2.00;;
64653;SDS011;51065;48.884;12.598;2023-04-25T01:17:55;4.03;;;2.17;;
64653;SDS011;51065;48.884;12.598;2023-04-25T01:20:21;4.53;;;1.80;;
64653;SDS011;51065;48.884;12.598;2023-04-25T01:22:48;6.75;;;2.70;;
64653;SDS011;51065;48.884;12.598;2023-04-25T01:25:14;4.13;;;2.05;;
64653;SDS011;51065;48.884;12.598;2023-04-25T01:27:40;6.13;;;2.35;;
64653;SDS011;51065;48.884;12.598;2023-04-25T01:30:06;4.32;;;2.13;;
64653;SDS011;51065;48.884;12.598;2023-04-25T01:32:33;5.75;;;2.67;;
64653;SDS011;51065;48.884;12.598;2023-04-25T01:35:04;8.00;;;2.97;;
64653;SDS011;51065;48.884;12.598;2023-04-25T01:37:38;7.13;;;2.72;;
64653;SDS011;51065;48.884;12.598;2023-04-25T01:40:08;5.30;;;2.30;;
64653;SDS011;51065;48.884;12.598;2023-04-25T01:42:35;7.93;;;2.95;;
64653;SDS011;51065;48.884;12.598;2023-04-25T01:45:03;4.32;;;2.40;;
64653;SDS011;51065;48.884;12.598;2023-04-25T01:47:28;5.22;;;2.53;;
64653;SDS011;51065;48.884;12.598;2023-04-25T01:49:54;6.63;;;2.58;;
64653;SDS011;51065;48.884;12.598;2023-04-25T01:52:20;5.95;;;3.15;;
64653;SDS011;51065;48.884;12.598;2023-04-25T01:54:46;8.80;;;2.65;;
64653;SDS011;51065;48.884;12.598;2023-04-25T01:57:12;4.90;;;2.70;;
64653;SDS011;51065;48.884;12.598;2023-04-25T01:59:38;5.53;;;2.55;;
64653;SDS011;51065;48.884;12.598;2023-04-25T02:02:05;7.93;;;3.08;;
64653;SDS011;51065;48.884;12.598;2023-04-25T02:04:31;6.18;;;2.85;;
64653;SDS011;51065;48.884;12.598;2023-04-25T02:06:57;5.50;;;2.53;;
64653;SDS011;51065;48.884;12.598;2023-04-25T02:09:22;5.70;;;2.38;;
64653;SDS011;51065;48.884;12.598;2023-04-25T02:11:48;6.05;;;2.78;;
64653;SDS011;51065;48.884;12.598;2023-04-25T02:14:14;5.10;;;2.75;;
64653;SDS011;51065;48.884;12.598;2023-04-25T02:16:39;5.50;;;3.00;;
64653;SDS011;51065;48.884;12.598;2023-04-25T02:19:05;8.15;;;2.90;;
64653;SDS011;51065;48.884;12.598;2023-04-25T02:21:31;6.82;;;2.83;;
64653;SDS011;51065;48.884;12.598;2023-04-25T02:23:57;5.50;;;2.53;;
64653;SDS011;51065;48.884;12.598;2023-04-25T02:26:23;6.82;;;2.83;;
64653;SDS011;51065;48.884;12.598;2023-04-25T02:28:48;5.28;;;2.72;;
64653;SDS011;51065;48.884;12.598;2023-04-25T02:31:15;5.40;;;2.50;;
64653;SDS011;51065;48.884;12.598;2023-04-25T02:33:41;5.63;;;2.65;;
64653;SDS011;51065;48.884;12.598;2023-04-25T02:36:06;6.65;;;2.90;;
64653;SDS011;51065;48.884;12.598;2023-04-25T02:38:32;5.93;;;2.50;;
64653;SDS011;51065;48.884;12.598;2023-04-25T02:40:58;7.13;;;2.80;;
64653;SDS011;51065;48.884;12.598;2023-04-25T02:43:23;7.32;;;2.78;;
64653;SDS011;51065;48.884;12.598;2023-04-25T02:45:49;7.70;;;3.00;;
64653;SDS011;51065;48.884;12.598;2023-04-25T02:48:15;6.60;;;2.97;;
64653;SDS011;51065;48.884;12.598;2023-04-25T02:50:40;6.40;;;2.83;;
64653;SDS011;51065;48.884;12.598;2023-04-25T02:53:06;7.60;;;3.05;;
64653;SDS011;51065;48.884;12.598;2023-04-25T02:55:31;7.43;;;3.33;;
64653;SDS011;51065;48.884;12.598;2023-04-25T02:57:57;6.15;;;3.17;;
64653;SDS011;51065;48.884;12.598;2023-04-25T03:00:22;8.82;;;3.60;;
64653;SDS011;51065;48.884;12.598;2023-04-25T03:02:48;5.43;;;2.78;;
64653;SDS011;51065;48.884;12.598;2023-04-25T03:05:13;6.78;;;2.97;;
64653;SDS011;51065;48.884;12.598;2023-04-25T03:07:39;7.70;;;3.00;;
64653;SDS011;51065;48.884;12.598;2023-04-25T03:10:08;5.22;;;2.75;;
64653;SDS011;51065;48.884;12.598;2023-04-25T03:12:34;5.97;;;2.88;;
64653;SDS011;51065;48.884;12.598;2023-04-25T03:14:59;4.97;;;2.40;;
64653;SDS011;51065;48.884;12.598;2023-04-25T03:17:25;6.70;;;2.80;;
64653;SDS011;51065;48.884;12.598;2023-04-25T03:19:50;6.90;;;2.78;;
64653;SDS011;51065;48.884;12.598;2023-04-25T03:22:16;6.50;;;2.80;;
64653;SDS011;51065;48.884;12.598;2023-04-25T03:24:41;5.60;;;2.67;;
64653;SDS011;51065;48.884;12.598;2023-04-25T03:27:07;6.57;;;3.05;;
64653;SDS011;51065;48.884;12.598;2023-04-25T03:29:33;7.00;;;2.72;;
64653;SDS011;51065;48.884;12.598;2023-04-25T03:31:58;5.85;;;2.58;;
64653;SDS011;51065;48.884;12.598;2023-04-25T03:34:24;6.03;;;2.85;;
64653;SDS011;51065;48.884;12.598;2023-04-25T03:36:50;6.07;;;2.80;;
64653;SDS011;51065;48.884;12.598;2023-04-25T03:39:16;5.70;;;2.97;;
64653;SDS011;51065;48.884;12.598;2023-04-25T03:41:42;6.25;;;2.83;;
64653;SDS011;51065;48.884;12.598;2023-04-25T03:44:07;8.45;;;2.53;;
64653;SDS011;51065;48.884;12.598;2023-04-25T03:46:33;7.30;;;3.15;;
64653;SDS011;51065;48.884;12.598;2023-04-25T03:48:58;4.47;;;2.20;;
64653;SDS011;51065;48.884;12.598;2023-04-25T03:51:24;4.03;;;2.42;;
64653;SDS011;51065;48.884;12.598;2023-04-25T03:53:50;8.55;;;2.88;;
64653;SDS011;51065;48.884;12.598;2023-04-25T03:56:16;7.22;;;2.92;;
64653;SDS011;51065;48.884;12.598;2023-04-25T03:58:42;7.57;;;3.33;;
64653;SDS011;51065;48.884;12.598;2023-04-25T04:01:08;5.07;;;2.33;;
64653;SDS011;51065;48.884;12.598;2023-04-25T04:03:34;7.57;;;2.70;;
64653;SDS011;51065;48.884;12.598;2023-04-25T04:06:01;8.02;;;3.15;;
64653;SDS011;51065;48.884;12.598;2023-04-25T04:08:30;8.38;;;2.65;;
64653;SDS011;51065;48.884;12.598;2023-04-25T04:10:57;5.88;;;2.63;;
64653;SDS011;51065;48.884;12.598;2023-04-25T04:13:23;5.85;;;2.58;;
64653;SDS011;51065;48.884;12.598;2023-04-25T04:15:51;6.75;;;2.35;;
64653;SDS011;51065;48.884;12.598;2023-04-25T04:18:16;8.00;;;2.65;;
64653;SDS011;51065;48.884;12.598;2023-04-25T04:20:42;6.55;;;2.80;;
64653;SDS011;51065;48.884;12.598;2023-04-25T04:23:07;5.90;;;2.75;;
64653;SDS011;51065;48.884;12.598;2023-04-25T04:25:33;6.70;;;2.63;;
64653;SDS011;51065;48.884;12.598;2023-04-25T04:27:59;5.32;;;2.83;;
64653;SDS011;51065;48.884;12.598;2023-04-25T04:30:25;5.88;;;2.65;;
64653;SDS011;51065;48.884;12.598;2023-04-25T04:32:54;5.38;;;2.70;;
64653;SDS011;51065;48.884;12.598;2023-04-25T04:35:20;6.55;;;2.70;;
64653;SDS011;51065;48.884;12.598;2023-04-25T04:37:46;5.70;;;2.75;;
64653;SDS011;51065;48.884;12.598;2023-04-25T04:40:12;5.82;;;2.40;;
64653;SDS011;51065;48.884;12.598;2023-04-25T04:42:40;6.97;;;2.80;;
64653;SDS011;51065;48.884;12.598;2023-04-25T04:45:06;6.55;;;2.75;;
64653;SDS011;51065;48.884;12.598;2023-04-25T04:47:32;7.90;;;3.10;;
64653;SDS011;51065;48.884;12.598;2023-04-25T04:49:58;7.35;;;2.92;;
64653;SDS011;51065;48.884;12.598;2023-04-25T04:52:24;7.63;;;3.08;;
64653;SDS011;51065;48.884;12.598;2023-04-25T04:54:50;6.95;;;2.88;;
64653;SDS011;51065;48.884;12.598;2023-04-25T04:57:15;4.90;;;2.80;;
64653;SDS011;51065;48.884;12.598;2023-04-25T04:59:41;5.28;;;2.78;;
64653;SDS011;51065;48.884;12.598;2023-04-25T05:02:07;8.23;;;2.92;;
64653;SDS011;51065;48.884;12.598;2023-04-25T05:04:32;7.53;;;2.88;;
64653;SDS011;51065;48.884;12.598;2023-04-25T05:06:58;7.05;;;3.22;;
64653;SDS011;51065;48.884;12.598;2023-04-25T05:09:23;8.93;;;3.08;;
64653;SDS011;51065;48.884;12.598;2023-04-25T05:11:50;8.07;;;2.92;;
64653;SDS011;51065;48.884;12.598;2023-04-25T05:14:16;7.32;;;2.90;;
64653;SDS011;51065;48.884;12.598;2023-04-25T05:16:42;7.18;;;2.63;;
64653;SDS011;51065;48.884;12.598;2023-04-25T05:19:09;9.30;;;3.40;;
64653;SDS011;51065;48.884;12.598;2023-04-25T05:21:34;4.57;;;2.50;;
64653;SDS011;51065;48.884;12.598;2023-04-25T05:24:00;4.70;;;2.55;;
64653;SDS011;51065;48.884;12.598;2023-04-25T05:26:26;6.25;;;2.83;;
64653;SDS011;51065;48.884;12.598;2023-04-25T05:28:55;5.60;;;2.85;;
64653;SDS011;51065;48.884;12.598;2023-04-25T05:31:24;6.82;;;3.00;;
64653;SDS011;51065;48.884;12.598;2023-04-25T05:33:50;7.30;;;2.38;;
64653;SDS011;51065;48.884;12.598;2023-04-25T05:36:16;6.20;;;2.72;;
64653;SDS011;51065;48.884;12.598;2023-04-25T05:38:43;6.00;;;3.17;;
64653;SDS011;51065;48.884;12.598;2023-04-25T05:41:08;9.15;;;3.40;;
64653;SDS011;51065;48.884;12.598;2023-04-25T05:43:34;7.63;;;3.58;;
64653;SDS011;51065;48.884;12.598;2023-04-25T05:46:00;8.52;;;3.28;;
64653;SDS011;51065;48.884;12.598;2023-04-25T05:48:25;6.75;;;3.05;;
64653;SDS011;51065;48.884;12.598;2023-04-25T05:50:51;7.03;;;2.40;;
64653;SDS011;51065;48.884;12.598;2023-04-25T05:53:17;4.80;;;2.85;;
64653;SDS011;51065;48.884;12.598;2023-04-25T05:55:43;6.30;;;2.97;;
64653;SDS011;51065;48.884;12.598;2023-04-25T05:58:09;5.72;;;2.70;;
64653;SDS011;51065;48.884;12.598;2023-04-25T06:00:34;7.07;;;2.95;;
64653;SDS011;51065;48.884;12.598;2023-04-25T06:03:00;8.98;;;2.95;;
64653;SDS011;51065;48.884;12.598;2023-04-25T06:05:26;6.03;;;3.00;;
64653;SDS011;51065;48.884;12.598;2023-04-25T06:07:51;10.70;;;3.70;;
64653;SDS011;51065;48.884;12.598;2023-04-25T06:10:17;7.82;;;3.35;;
64653;SDS011;51065;48.884;12.598;2023-04-25T06:12:43;7.65;;;3.65;;
64653;SDS011;51065;48.884;12.598;2023-04-25T06:15:09;6.43;;;3.17;;
64653;SDS011;51065;48.884;12.598;2023-04-25T06:17:35;4.70;;;2.35;;
64653;SDS011;51065;48.884;12.598;2023-04-25T06:20:01;5.55;;;2.60;;
64653;SDS011;51065;48.884;12.598;2023-04-25T06:22:27;8.05;;;2.75;;
64653;SDS011;51065;48.884;12.598;2023-04-25T06:24:52;8.18;;;3.10;;
64653;SDS011;51065;48.884;12.598;2023-04-25T06:27:18;7.90;;;2.95;;
64653;SDS011;51065;48.884;12.598;2023-04-25T06:29:43;5.15;;;2.22;;
64653;SDS011;51065;48.884;12.598;2023-04-25T06:32:09;6.07;;;2.15;;
64653;SDS011;51065;48.884;12.598;2023-04-25T06:34:34;4.65;;;2.25;;
64653;SDS011;51065;48.884;12.598;2023-04-25T06:37:00;4.50;;;1.77;;
64653;SDS011;51065;48.884;12.598;2023-04-25T06:39:25;2.95;;;1.60;;
64653;SDS011;51065;48.884;12.598;2023-04-25T06:41:51;3.88;;;1.75;;
64653;SDS011;51065;48.884;12.598;2023-04-25T06:44:17;4.38;;;1.95;;
64653;SDS011;51065;48.884;12.598;2023-04-25T06:46:42;3.88;;;1.65;;
64653;SDS011;51065;48.884;12.598;2023-04-25T06:49:08;3.17;;;1.83;;
64653;SDS011;51065;48.884;12.598;2023-04-25T06:51:33;4.57;;;2.17;;
64653;SDS011;51065;48.884;12.598;2023-04-25T06:53:59;3.00;;;1.83;;
64653;SDS011;51065;48.884;12.598;2023-04-25T06:56:25;3.83;;;2.00;;
64653;SDS011;51065;48.884;12.598;2023-04-25T06:58:50;4.32;;;2.22;;
64653;SDS011;51065;48.884;12.598;2023-04-25T07:01:16;3.00;;;1.52;;
64653;SDS011;51065;48.884;12.598;2023-04-25T07:03:41;4.22;;;1.88;;
64653;SDS011;51065;48.884;12.598;2023-04-25T07:06:07;3.58;;;1.77;;
64653;SDS011;51065;48.884;12.598;2023-04-25T07:08:32;7.63;;;2.10;;
64653;SDS011;51065;48.884;12.598;2023-04-25T07:10:58;3.85;;;1.90;;
64653;SDS011;51065;48.884;12.598;2023-04-25T07:13:23;3.10;;;1.83;;
64653;SDS011;51065;48.884;12.598;2023-04-25T07:15:49;3.28;;;1.60;;
64653;SDS011;51065;48.884;12.598;2023-04-25T07:18:14;4.68;;;1.90;;
64653;SDS011;51065;48.884;12.598;2023-04-25T07:20:41;3.70;;;2.10;;
64653;SDS011;51065;48.884;12.598;2023-04-25T07:23:06;7.47;;;2.35;;
64653;SDS011;51065;48.884;12.598;2023-04-25T07:25:32;3.50;;;1.70;;
64653;SDS011;51065;48.884;12.598;2023-04-25T07:27:57;3.85;;;1.98;;
64653;SDS011;51065;48.884;12.598;2023-04-25T07:30:23;4.82;;;2.35;;
64653;SDS011;51065;48.884;12.598;2023-04-25T07:32:49;3.05;;;1.83;;
64653;SDS011;51065;48.884;12.598;2023-04-25T07:35:15;3.33;;;1.88;;
64653;SDS011;51065;48.884;12.598;2023-04-25T07:37:41;4.25;;;1.92;;
64653;SDS011;51065;48.884;12.598;2023-04-25T07:40:07;5.28;;;2.13;;
64653;SDS011;51065;48.884;12.598;2023-04-25T07:42:34;5.05;;;2.30;;
64653;SDS011;51065;48.884;12.598;2023-04-25T07:45:00;6.13;;;1.85;;
64653;SDS011;51065;48.884;12.598;2023-04-25T07:47:26;3.50;;;1.80;;
64653;SDS011;51065;48.884;12.598;2023-04-25T07:49:51;3.08;;;1.70;;
64653;SDS011;51065;48.884;12.598;2023-04-25T07:52:17;3.53;;;1.70;;
64653;SDS011;51065;48.884;12.598;2023-04-25T07:54:42;3.78;;;1.92;;
64653;SDS011;51065;48.884;12.598;2023-04-25T07:57:08;3.63;;;1.77;;
64653;SDS011;51065;48.884;12.598;2023-04-25T07:59:34;3.25;;;1.85;;
64653;SDS011;51065;48.884;12.598;2023-04-25T08:01:59;5.57;;;2.20;;
64653;SDS011;51065;48.884;12.598;2023-04-25T08:04:26;2.78;;;1.85;;
64653;SDS011;51065;48.884;12.598;2023-04-25T08:06:51;4.88;;;2.25;;
64653;SDS011;51065;48.884;12.598;2023-04-25T08:09:20;4.38;;;2.30;;
64653;SDS011;51065;48.884;12.598;2023-04-25T08:11:46;7.15;;;2.47;;
64653;SDS011;51065;48.884;12.598;2023-04-25T08:14:12;6.70;;;2.30;;
64653;SDS011;51065;48.884;12.598;2023-04-25T08:16:38;6.18;;;1.92;;
64653;SDS011;51065;48.884;12.598;2023-04-25T08:19:04;5.00;;;2.45;;
64653;SDS011;51065;48.884;12.598;2023-04-25T08:21:30;4.15;;;1.85;;
64653;SDS011;51065;48.884;12.598;2023-04-25T08:23:56;4.85;;;2.08;;
64653;SDS011;51065;48.884;12.598;2023-04-25T08:26:23;6.15;;;2.15;;
64653;SDS011;51065;48.884;12.598;2023-04-25T08:28:49;5.82;;;2.03;;
64653;SDS011;51065;48.884;12.598;2023-04-25T08:31:15;5.18;;;2.08;;
64653;SDS011;51065;48.884;12.598;2023-04-25T08:33:41;3.33;;;1.80;;
64653;SDS011;51065;48.884;12.598;2023-04-25T08:36:07;4.80;;;1.73;;
64653;SDS011;51065;48.884;12.598;2023-04-25T08:38:33;3.88;;;1.92;;
64653;SDS011;51065;48.884;12.598;2023-04-25T08:40:58;4.97;;;2.30;;
64653;SDS011;51065;48.884;12.598;2023-04-25T08:43:26;4.60;;;2.20;;
64653;SDS011;51065;48.884;12.598;2023-04-25T08:45:53;3.70;;;2.10;;
64653;SDS011;51065;48.884;12.598;2023-04-25T08:48:22;3.35;;;2.17;;
64653;SDS011;51065;48.884;12.598;2023-04-25T08:50:52;6.03;;;2.03;;
64653;SDS011;51065;48.884;12.598;2023-04-25T08:53:21;5.47;;;2.40;;
64653;SDS011;51065;48.884;12.598;2023-04-25T08:55:50;8.43;;;2.55;;
64653;SDS011;51065;48.884;12.598;2023-04-25T08:58:19;3.55;;;1.90;;
64653;SDS011;51065;48.884;12.598;2023-04-25T09:00:48;4.75;;;2.00;;
64653;SDS011;51065;48.884;12.598;2023-04-25T09:03:15;3.58;;;1.92;;
64653;SDS011;51065;48.884;12.598;2023-04-25T09:05:41;4.78;;;2.42;;
64653;SDS011;51065;48.884;12.598;2023-04-25T09:08:07;5.45;;;2.13;;
64653;SDS011;51065;48.884;12.598;2023-04-25T09:10:33;5.47;;;2.40;;
64653;SDS011;51065;48.884;12.598;2023-04-25T09:15:29;4.93;;;2.13;;
64653;SDS011;51065;48.884;12.598;2023-04-25T09:17:57;3.22;;;2.10;;
64653;SDS011;51065;48.884;12.598;2023-04-25T09:20:23;8.15;;;2.33;;
64653;SDS011;51065;48.884;12.598;2023-04-25T09:22:49;5.22;;;1.98;;
64653;SDS011;51065;48.884;12.598;2023-04-25T09:25:27;4.28;;;2.30;;
64653;SDS011;51065;48.884;12.598;2023-04-25T09:28:06;2.85;;;1.80;;
64653;SDS011;51065;48.884;12.598;2023-04-25T09:30:33;3.45;;;1.83;;
64653;SDS011;51065;48.884;12.598;2023-04-25T09:33:06;3.88;;;2.00;;
64653;SDS011;51065;48.884;12.598;2023-04-25T09:35:43;4.25;;;1.80;;
64653;SDS011;51065;48.884;12.598;2023-04-25T09:38:13;5.88;;;2.03;;
64653;SDS011;51065;48.884;12.598;2023-04-25T09:40:44;2.85;;;1.88;;
64653;SDS011;51065;48.884;12.598;2023-04-25T09:43:21;3.67;;;1.83;;
64653;SDS011;51065;48.884;12.598;2023-04-25T09:45:47;2.15;;;1.60;;
64653;SDS011;51065;48.884;12.598;2023-04-25T09:48:20;3.67;;;2.00;;
64653;SDS011;51065;48.884;12.598;2023-04-25T09:51:05;3.50;;;1.52;;
64653;SDS011;51065;48.884;12.598;2023-04-25T09:53:33;4.07;;;1.73;;
64653;SDS011;51065;48.884;12.598;2023-04-25T09:56:04;3.83;;;1.58;;
64653;SDS011;51065;48.884;12.598;2023-04-25T09:58:31;3.00;;;1.40;;
64653;SDS011;51065;48.884;12.598;2023-04-25T10:01:04;4.65;;;1.80;;
64653;SDS011;51065;48.884;12.598;2023-04-25T10:03:32;2.00;;;1.35;;
64653;SDS011;51065;48.884;12.598;2023-04-25T10:06:00;2.42;;;1.58;;
64653;SDS011;51065;48.884;12.598;2023-04-25T10:08:34;3.70;;;1.90;;
64653;SDS011;51065;48.884;12.598;2023-04-25T10:11:02;5.43;;;1.80;;
64653;SDS011;51065;48.884;12.598;2023-04-25T10:13:30;4.05;;;1.77;;
64653;SDS011;51065;48.884;12.598;2023-04-25T10:16:00;3.15;;;1.73;;
64653;SDS011;51065;48.884;12.598;2023-04-25T10:18:28;3.58;;;2.00;;
64653;SDS011;51065;48.884;12.598;2023-04-25T10:20:55;3.80;;;2.50;;
64653;SDS011;51065;48.884;12.598;2023-04-25T10:23:22;4.78;;;2.20;;
64653;SDS011;51065;48.884;12.598;2023-04-25T10:25:49;3.10;;;2.00;;
64653;SDS011;51065;48.884;12.598;2023-04-25T10:28:16;4.57;;;1.70;;
64653;SDS011;51065;48.884;12.598;2023-04-25T10:33:39;2.80;;;1.70;;
64653;SDS011;51065;48.884;12.598;2023-04-25T10:38:38;3.63;;;2.17;;
64653;SDS011;51065;48.884;12.598;2023-04-25T10:41:04;3.22;;;2.10;;
64653;SDS011;51065;48.884;12.598;2023-04-25T10:46:00;3.58;;;1.70;;
64653;SDS011;51065;48.884;12.598;2023-04-25T10:48:27;4.38;;;2.08;;
64653;SDS011;51065;48.884;12.598;2023-04-25T10:51:06;3.97;;;2.45;;
64653;SDS011;51065;48.884;12.598;2023-04-25T10:56:21;4.00;;;1.98;;
64653;SDS011;51065;48.884;12.598;2023-04-25T10:58:49;4.22;;;1.77;;
64653;SDS011;51065;48.884;12.598;2023-04-25T11:01:15;3.63;;;1.77;;
64653;SDS011;51065;48.884;12.598;2023-04-25T11:03:45;7.97;;;2.05;;
64653;SDS011;51065;48.884;12.598;2023-04-25T11:06:40;2.72;;;1.95;;
64653;SDS011;51065;48.884;12.598;2023-04-25T11:09:13;6.18;;;1.83;;
64653;SDS011;51065;48.884;12.598;2023-04-25T11:11:39;4.80;;;1.95;;
64653;SDS011;51065;48.884;12.598;2023-04-25T11:14:05;3.83;;;1.60;;
64653;SDS011;51065;48.884;12.598;2023-04-25T11:16:31;3.70;;;1.83;;
64653;SDS011;51065;48.884;12.598;2023-04-25T11:18:57;3.70;;;1.80;;
64653;SDS011;51065;48.884;12.598;2023-04-25T11:21:23;2.88;;;1.45;;
64653;SDS011;51065;48.884;12.598;2023-04-25T11:23:51;2.92;;;1.45;;
64653;SDS011;51065;48.884;12.598;2023-04-25T11:26:18;2.45;;;1.40;;
64653;SDS011;51065;48.884;12.598;2023-04-25T11:28:45;2.10;;;1.27;;
64653;SDS011;51065;48.884;12.598;2023-04-25T11:31:12;1.63;;;1.30;;
64653;SDS011;51065;48.884;12.598;2023-04-25T11:33:37;2.47;;;1.75;;
64653;SDS011;51065;48.884;12.598;2023-04-25T11:36:03;3.10;;;1.52;;
64653;SDS011;51065;48.884;12.598;2023-04-25T11:38:30;1.92;;;1.35;;
64653;SDS011;51065;48.884;12.598;2023-04-25T11:40:56;2.83;;;1.30;;
64653;SDS011;51065;48.884;12.598;2023-04-25T11:43:22;1.67;;;1.00;;
64653;SDS011;51065;48.884;12.598;2023-04-25T11:45:48;1.48;;;1.10;;
64653;SDS011;51065;48.884;12.598;2023-04-25T11:48:15;1.75;;;0.88;;
64653;SDS011;51065;48.884;12.598;2023-04-25T11:50:41;3.00;;;1.23;;
64653;SDS011;51065;48.884;12.598;2023-04-25T11:53:07;2.35;;;1.20;;
64653;SDS011;51065;48.884;12.598;2023-04-25T11:55:33;1.92;;;1.20;;
64653;SDS011;51065;48.884;12.598;2023-04-25T11:57:59;2.03;;;1.00;;
64653;SDS011;51065;48.884;12.598;2023-04-25T12:00:26;2.45;;;1.30;;
64653;SDS011;51065;48.884;12.598;2023-04-25T12:02:52;2.38;;;1.38;;
64653;SDS011;51065;48.884;12.598;2023-04-25T12:05:19;1.77;;;1.20;;
64653;SDS011;51065;48.884;12.598;2023-04-25T12:07:48;1.75;;;1.20;;
64653;SDS011;51065;48.884;12.598;2023-04-25T12:10:14;2.28;;;1.10;;
64653;SDS011;51065;48.884;12.598;2023-04-25T12:12:41;3.10;;;1.60;;
64653;SDS011;51065;48.884;12.598;2023-04-25T12:15:09;2.80;;;1.20;;
64653;SDS011;51065;48.884;12.598;2023-04-25T12:17:44;2.95;;;1.40;;
64653;SDS011;51065;48.884;12.598;2023-04-25T12:20:15;1.80;;;1.00;;
64653;SDS011;51065;48.884;12.598;2023-04-25T12:22:42;1.58;;;1.02;;
64653;SDS011;51065;48.884;12.598;2023-04-25T12:25:12;1.25;;;1.02;;
64653;SDS011;51065;48.884;12.598;2023-04-25T12:30:55;1.90;;;0.95;;
64653;SDS011;51065;48.884;12.598;2023-04-25T12:33:29;1.00;;;0.88;;
64653;SDS011;51065;48.884;12.598;2023-04-25T12:35:56;2.72;;;1.02;;
64653;SDS011;51065;48.884;12.598;2023-04-25T12:38:27;1.50;;;0.80;;
64653;SDS011;51065;48.884;12.598;2023-04-25T12:40:54;0.77;;;0.70;;
64653;SDS011;51065;48.884;12.598;2023-04-25T12:43:20;2.80;;;1.00;;
64653;SDS011;51065;48.884;12.598;2023-04-25T12:45:50;1.52;;;0.80;;
64653;SDS011;51065;48.884;12.598;2023-04-25T12:48:17;1.67;;;0.90;;
64653;SDS011;51065;48.884;12.598;2023-04-25T12:50:43;2.38;;;0.77;;
64653;SDS011;51065;48.884;12.598;2023-04-25T12:53:09;1.77;;;0.93;;
64653;SDS011;51065;48.884;12.598;2023-04-25T12:55:35;2.13;;;0.82;;
64653;SDS011;51065;48.884;12.598;2023-04-25T12:58:00;1.67;;;1.00;;
64653;SDS011;51065;48.884;12.598;2023-04-25T13:00:26;2.88;;;0.90;;
64653;SDS011;51065;48.884;12.598;2023-04-25T13:02:52;2.22;;;1.20;;
64653;SDS011;51065;48.884;12.598;2023-04-25T13:05:18;2.40;;;1.00;;
64653;SDS011;51065;48.884;12.598;2023-04-25T13:07:43;1.67;;;1.25;;
64653;SDS011;51065;48.884;12.598;2023-04-25T13:10:09;1.20;;;0.93;;
64653;SDS011;51065;48.884;12.598;2023-04-25T13:12:35;1.20;;;0.90;;
64653;SDS011;51065;48.884;12.598;2023-04-25T13:15:01;1.33;;;1.00;;
64653;SDS011;51065;48.884;12.598;2023-04-25T13:17:26;1.70;;;1.10;;
64653;SDS011;51065;48.884;12.598;2023-04-25T13:19:52;5.80;;;1.35;;
64653;SDS011;51065;48.884;12.598;2023-04-25T13:22:17;1.38;;;1.10;;
64653;SDS011;51065;48.884;12.598;2023-04-25T13:24:45;1.52;;;1.17;;
64653;SDS011;51065;48.884;12.598;2023-04-25T13:27:10;3.95;;;1.17;;
64653;SDS011;51065;48.884;12.598;2023-04-25T13:29:36;1.95;;;0.90;;
64653;SDS011;51065;48.884;12.598;2023-04-25T13:32:03;3.63;;;1.38;;
64653;SDS011;51065;48.884;12.598;2023-04-25T13:34:30;2.03;;;1.10;;
64653;SDS011;51065;48.884;12.598;2023-04-25T13:36:55;1.98;;;1.20;;
64653;SDS011;51065;48.884;12.598;2023-04-25T13:39:21;2.08;;;1.08;;
64653;SDS011;51065;48.884;12.598;2023-04-25T13:41:47;2.00;;;1.20;;
64653;SDS011;51065;48.884;12.598;2023-04-25T13:44:12;4.22;;;1.42;;
64653;SDS011;51065;48.884;12.598;2023-04-25T13:46:38;1.30;;;0.90;;
64653;SDS011;51065;48.884;12.598;2023-04-25T13:49:04;3.72;;;1.20;;
64653;SDS011;51065;48.884;12.598;2023-04-25T13:51:29;3.15;;;1.50;;
64653;SDS011;51065;48.884;12.598;2023-04-25T13:53:56;2.05;;;1.33;;
64653;SDS011;51065;48.884;12.598;2023-04-25T13:56:22;3.10;;;1.10;;
64653;SDS011;51065;48.884;12.598;2023-04-25T13:58:48;2.25;;;1.30;;
64653;SDS011;51065;48.884;12.598;2023-04-25T14:01:15;2.35;;;1.30;;
64653;SDS011;51065;48.884;12.598;2023-04-25T14:03:40;5.20;;;1.63;;
64653;SDS011;51065;48.884;12.598;2023-04-25T14:06:06;3.10;;;1.33;;
64653;SDS011;51065;48.884;12.598;2023-04-25T14:08:33;1.77;;;1.10;;
64653;SDS011;51065;48.884;12.598;2023-04-25T14:10:59;3.38;;;1.70;;
64653;SDS011;51065;48.884;12.598;2023-04-25T14:13:24;3.15;;;1.35;;
64653;SDS011;51065;48.884;12.598;2023-04-25T14:15:50;2.10;;;0.98;;
64653;SDS011;51065;48.884;12.598;2023-04-25T14:18:15;1.15;;;0.80;;
64653;SDS011;51065;48.884;12.598;2023-04-25T14:20:42;1.38;;;0.93;;
64653;SDS011;51065;48.884;12.598;2023-04-25T14:23:07;1.25;;;0.80;;
64653;SDS011;51065;48.884;12.598;2023-04-25T14:25:33;1.90;;;0.93;;
64653;SDS011;51065;48.884;12.598;2023-04-25T14:28:00;2.35;;;1.17;;
64653;SDS011;51065;48.884;12.598;2023-04-25T14:30:26;1.98;;;1.40;;
64653;SDS011;51065;48.884;12.598;2023-04-25T14:32:51;2.13;;;1.10;;
64653;SDS011;51065;48.884;12.598;2023-04-25T14:35:17;2.08;;;1.10;;
64653;SDS011;51065;48.884;12.598;2023-04-25T14:37:42;5.32;;;1.60;;
64653;SDS011;51065;48.884;12.598;2023-04-25T14:40:08;3.60;;;1.38;;
64653;SDS011;51065;48.884;12.598;2023-04-25T14:42:36;3.75;;;1.33;;
64653;SDS011;51065;48.884;12.598;2023-04-25T14:45:02;1.80;;;1.25;;
64653;SDS011;51065;48.884;12.598;2023-04-25T14:47:32;1.83;;;1.13;;